sensor_id;sensor_type;location;lat;lon;timestamp;temperature;humidity
23681;DHT22;62915;50.832;4.462;2023-12-20T00:01:29;8.20;99.90
23681;DHT22;62915;50.832;4.462;2023-12-20T00:03:55;8.20;99.90
23681;DHT22;62915;50.832;4.462;2023-12-20T00:06:20;8.20;99.90
23681;DHT22;62915;50.832;4.462;2023-12-20T00:08:46;8.20;99.90
23681;DHT22;62915;50.832;4.462;2023-12-20T00:11:13;8.10;99.90
23681;DHT22;62915;50.832;4.462;2023-12-20T00:13:38;8.20;99.90
23681;DHT22;62915;50.832;4.462;2023-12-20T00:16:04;8.20;99.90
23681;DHT22;62915;50.832;4.462;2023-12-20T00:18:30;8.10;99.90
23681;DHT22;62915;50.832;4.462;2023-12-20T00:20:56;8.10;99.90
23681;DHT22;62915;50.832;4.462;2023-12-20T00:23:22;8.10;99.90
23681;DHT22;62915;50.832;4.462;2023-12-20T00:25:48;8.10;99.90
23681;DHT22;62915;50.832;4.462;2023-12-20T00:28:15;8.10;99.90
23681;DHT22;62915;50.832;4.462;2023-12-20T00:30:40;8.10;99.90
23681;DHT22;62915;50.832;4.462;2023-12-20T00:33:06;8.00;99.90
23681;DHT22;62915;50.832;4.462;2023-12-20T00:35:32;8.00;99.90
23681;DHT22;62915;50.832;4.462;2023-12-20T00:37:58;7.90;99.90
23681;DHT22;62915;50.832;4.462;2023-12-20T00:40:24;7.80;99.90
23681;DHT22;62915;50.832;4.462;2023-12-20T00:42:50;7.90;99.90
23681;DHT22;62915;50.832;4.462;2023-12-20T00:45:15;7.90;99.90
23681;DHT22;62915;50.832;4.462;2023-12-20T00:47:41;7.80;99.90
23681;DHT22;62915;50.832;4.462;2023-12-20T00:50:08;7.90;99.90
23681;DHT22;62915;50.832;4.462;2023-12-20T00:52:33;7.90;99.90
23681;DHT22;62915;50.832;4.462;2023-12-20T00:54:59;7.90;99.90
23681;DHT22;62915;50.832;4.462;2023-12-20T00:57:25;7.90;99.90
23681;DHT22;62915;50.832;4.462;2023-12-20T00:59:51;7.80;99.90
23681;DHT22;62915;50.832;4.462;2023-12-20T01:02:16;7.80;99.90
23681;DHT22;62915;50.832;4.462;2023-12-20T01:04:42;7.70;99.90
23681;DHT22;62915;50.832;4.462;2023-12-20T01:07:08;7.80;99.90
23681;DHT22;62915;50.832;4.462;2023-12-20T01:09:34;7.70;99.90
23681;DHT22;62915;50.832;4.462;2023-12-20T01:11:59;7.70;99.90
23681;DHT22;62915;50.832;4.462;2023-12-20T01:14:25;7.70;99.90
23681;DHT22;62915;50.832;4.462;2023-12-20T01:16:51;7.80;99.90
23681;DHT22;62915;50.832;4.462;2023-12-20T01:19:16;7.70;99.90
23681;DHT22;62915;50.832;4.462;2023-12-20T01:21:42;7.50;99.90
23681;DHT22;62915;50.832;4.462;2023-12-20T01:24:08;7.50;99.90
23681;DHT22;62915;50.832;4.462;2023-12-20T01:26:34;7.50;99.90
23681;DHT22;62915;50.832;4.462;2023-12-20T01:29:00;7.40;99.90
23681;DHT22;62915;50.832;4.462;2023-12-20T01:31:26;7.50;99.90
23681;DHT22;62915;50.832;4.462;2023-12-20T01:33:52;7.40;99.90
23681;DHT22;62915;50.832;4.462;2023-12-20T01:36:18;7.40;99.90
23681;DHT22;62915;50.832;4.462;2023-12-20T01:38:45;7.40;99.90
23681;DHT22;62915;50.832;4.462;2023-12-20T01:41:11;7.40;99.90
23681;DHT22;62915;50.832;4.462;2023-12-20T01:43:36;7.50;99.90
23681;DHT22;62915;50.832;4.462;2023-12-20T01:46:02;7.50;99.90
23681;DHT22;62915;50.832;4.462;2023-12-20T01:48:29;7.50;99.90
23681;DHT22;62915;50.832;4.462;2023-12-20T01:50:59;7.50;99.90
23681;DHT22;62915;50.832;4.462;2023-12-20T01:53:25;7.50;99.90
23681;DHT22;62915;50.832;4.462;2023-12-20T01:55:54;7.40;99.90
23681;DHT22;62915;50.832;4.462;2023-12-20T01:58:20;7.50;99.90
23681;DHT22;62915;50.832;4.462;2023-12-20T02:00:47;7.50;99.90
23681;DHT22;62915;50.832;4.462;2023-12-20T02:03:14;7.40;99.90
23681;DHT22;62915;50.832;4.462;2023-12-20T02:05:40;7.50;99.90
23681;DHT22;62915;50.832;4.462;2023-12-20T02:08:06;7.50;99.90
23681;DHT22;62915;50.832;4.462;2023-12-20T02:10:32;7.40;99.90
23681;DHT22;62915;50.832;4.462;2023-12-20T02:12:58;7.60;99.90
23681;DHT22;62915;50.832;4.462;2023-12-20T02:15:24;7.60;99.90
23681;DHT22;62915;50.832;4.462;2023-12-20T02:17:50;7.60;99.90
23681;DHT22;62915;50.832;4.462;2023-12-20T02:20:16;7.60;99.90
23681;DHT22;62915;50.832;4.462;2023-12-20T02:22:42;7.50;99.90
23681;DHT22;62915;50.832;4.462;2023-12-20T02:25:07;7.50;99.90
23681;DHT22;62915;50.832;4.462;2023-12-20T02:27:34;7.50;99.90
23681;DHT22;62915;50.832;4.462;2023-12-20T02:30:00;7.40;99.90
23681;DHT22;62915;50.832;4.462;2023-12-20T02:32:26;7.30;99.90
23681;DHT22;62915;50.832;4.462;2023-12-20T02:34:53;7.40;99.90
23681;DHT22;62915;50.832;4.462;2023-12-20T02:37:19;7.40;99.90
23681;DHT22;62915;50.832;4.462;2023-12-20T02:39:44;7.30;99.90
23681;DHT22;62915;50.832;4.462;2023-12-20T02:42:10;7.40;99.90
23681;DHT22;62915;50.832;4.462;2023-12-20T02:44:36;7.50;99.90
23681;DHT22;62915;50.832;4.462;2023-12-20T02:47:02;7.40;99.90
23681;DHT22;62915;50.832;4.462;2023-12-20T02:49:28;7.40;99.90
23681;DHT22;62915;50.832;4.462;2023-12-20T02:51:55;7.40;99.90
23681;DHT22;62915;50.832;4.462;2023-12-20T02:54:21;7.40;99.90
23681;DHT22;62915;50.832;4.462;2023-12-20T02:56:46;7.30;99.90
23681;DHT22;62915;50.832;4.462;2023-12-20T02:59:12;7.40;99.90
23681;DHT22;62915;50.832;4.462;2023-12-20T03:01:42;7.30;99.90
23681;DHT22;62915;50.832;4.462;2023-12-20T03:04:09;7.30;99.90
23681;DHT22;62915;50.832;4.462;2023-12-20T03:06:34;7.30;99.90
23681;DHT22;62915;50.832;4.462;2023-12-20T03:09:00;7.20;99.90
23681;DHT22;62915;50.832;4.462;2023-12-20T03:11:29;7.40;99.90
23681;DHT22;62915;50.832;4.462;2023-12-20T03:13:55;7.40;99.90
23681;DHT22;62915;50.832;4.462;2023-12-20T03:16:21;7.40;99.90
23681;DHT22;62915;50.832;4.462;2023-12-20T03:18:47;7.40;99.90
23681;DHT22;62915;50.832;4.462;2023-12-20T03:21:13;7.40;99.90
23681;DHT22;62915;50.832;4.462;2023-12-20T03:23:38;7.40;99.90
23681;DHT22;62915;50.832;4.462;2023-12-20T03:26:07;7.40;99.90
23681;DHT22;62915;50.832;4.462;2023-12-20T03:28:32;7.40;99.90
23681;DHT22;62915;50.832;4.462;2023-12-20T03:30:58;7.30;99.90
23681;DHT22;62915;50.832;4.462;2023-12-20T03:33:24;7.30;99.90
23681;DHT22;62915;50.832;4.462;2023-12-20T03:35:50;7.20;99.90
23681;DHT22;62915;50.832;4.462;2023-12-20T03:38:15;7.20;99.90
23681;DHT22;62915;50.832;4.462;2023-12-20T03:40:41;7.10;99.90
23681;DHT22;62915;50.832;4.462;2023-12-20T03:43:07;7.20;99.90
23681;DHT22;62915;50.832;4.462;2023-12-20T03:45:33;7.20;99.90
23681;DHT22;62915;50.832;4.462;2023-12-20T03:47:59;7.30;99.90
23681;DHT22;62915;50.832;4.462;2023-12-20T03:50:26;7.40;99.90
23681;DHT22;62915;50.832;4.462;2023-12-20T03:52:52;7.30;99.90
23681;DHT22;62915;50.832;4.462;2023-12-20T03:55:18;7.30;99.90
23681;DHT22;62915;50.832;4.462;2023-12-20T03:57:43;7.30;99.90
23681;DHT22;62915;50.832;4.462;2023-12-20T04:00:10;7.40;99.90
23681;DHT22;62915;50.832;4.462;2023-12-20T04:02:42;7.50;99.90
23681;DHT22;62915;50.832;4.462;2023-12-20T04:05:09;7.50;99.90
23681;DHT22;62915;50.832;4.462;2023-12-20T04:07:38;7.50;99.90
23681;DHT22;62915;50.832;4.462;2023-12-20T04:10:04;7.50;99.90
23681;DHT22;62915;50.832;4.462;2023-12-20T04:12:32;7.50;99.90
23681;DHT22;62915;50.832;4.462;2023-12-20T04:14:58;7.50;99.90
23681;DHT22;62915;50.832;4.462;2023-12-20T04:17:23;7.60;99.90
23681;DHT22;62915;50.832;4.462;2023-12-20T04:19:50;7.50;99.90
23681;DHT22;62915;50.832;4.462;2023-12-20T04:22:16;7.40;99.90
23681;DHT22;62915;50.832;4.462;2023-12-20T04:24:42;7.40;99.90
23681;DHT22;62915;50.832;4.462;2023-12-20T04:27:08;7.40;99.90
23681;DHT22;62915;50.832;4.462;2023-12-20T04:29:34;7.40;99.90
23681;DHT22;62915;50.832;4.462;2023-12-20T04:32:00;7.40;99.90
23681;DHT22;62915;50.832;4.462;2023-12-20T04:34:26;7.40;99.90
23681;DHT22;62915;50.832;4.462;2023-12-20T04:36:52;7.50;99.90
23681;DHT22;62915;50.832;4.462;2023-12-20T04:39:18;7.40;99.90
23681;DHT22;62915;50.832;4.462;2023-12-20T04:41:43;7.30;99.90
23681;DHT22;62915;50.832;4.462;2023-12-20T04:44:09;7.30;99.90
23681;DHT22;62915;50.832;4.462;2023-12-20T04:46:35;7.30;99.90
23681;DHT22;62915;50.832;4.462;2023-12-20T04:49:01;7.30;99.90
23681;DHT22;62915;50.832;4.462;2023-12-20T04:51:27;7.30;99.90
23681;DHT22;62915;50.832;4.462;2023-12-20T04:53:53;7.40;99.90
23681;DHT22;62915;50.832;4.462;2023-12-20T04:56:18;7.40;99.90
23681;DHT22;62915;50.832;4.462;2023-12-20T04:58:45;7.50;99.90
23681;DHT22;62915;50.832;4.462;2023-12-20T05:01:11;7.50;99.90
23681;DHT22;62915;50.832;4.462;2023-12-20T05:03:37;7.40;99.90
23681;DHT22;62915;50.832;4.462;2023-12-20T05:06:03;7.30;99.90
23681;DHT22;62915;50.832;4.462;2023-12-20T05:08:29;7.30;99.90
23681;DHT22;62915;50.832;4.462;2023-12-20T05:10:55;7.40;99.90
23681;DHT22;62915;50.832;4.462;2023-12-20T05:13:21;7.30;99.90
23681;DHT22;62915;50.832;4.462;2023-12-20T05:15:47;7.40;99.90
23681;DHT22;62915;50.832;4.462;2023-12-20T05:18:13;7.30;99.90
23681;DHT22;62915;50.832;4.462;2023-12-20T05:20:39;7.40;99.90
23681;DHT22;62915;50.832;4.462;2023-12-20T05:23:05;7.40;99.90
23681;DHT22;62915;50.832;4.462;2023-12-20T05:25:31;7.30;99.90
23681;DHT22;62915;50.832;4.462;2023-12-20T05:27:57;7.30;99.90
23681;DHT22;62915;50.832;4.462;2023-12-20T05:30:22;7.10;99.90
23681;DHT22;62915;50.832;4.462;2023-12-20T05:32:48;7.20;99.90
23681;DHT22;62915;50.832;4.462;2023-12-20T05:35:14;7.10;99.90
23681;DHT22;62915;50.832;4.462;2023-12-20T05:37:41;7.10;99.90
23681;DHT22;62915;50.832;4.462;2023-12-20T05:40:07;7.20;99.90
23681;DHT22;62915;50.832;4.462;2023-12-20T05:42:36;7.20;99.90
23681;DHT22;62915;50.832;4.462;2023-12-20T05:45:02;7.10;99.90
23681;DHT22;62915;50.832;4.462;2023-12-20T05:47:28;7.20;99.90
23681;DHT22;62915;50.832;4.462;2023-12-20T05:49:54;7.20;99.90
23681;DHT22;62915;50.832;4.462;2023-12-20T05:52:19;7.20;99.90
23681;DHT22;62915;50.832;4.462;2023-12-20T05:54:45;7.20;99.90
23681;DHT22;62915;50.832;4.462;2023-12-20T05:57:11;7.10;99.90
23681;DHT22;62915;50.832;4.462;2023-12-20T05:59:36;7.10;99.90
23681;DHT22;62915;50.832;4.462;2023-12-20T06:02:03;7.00;99.90
23681;DHT22;62915;50.832;4.462;2023-12-20T06:04:30;7.00;99.90
23681;DHT22;62915;50.832;4.462;2023-12-20T06:06:56;6.90;99.90
23681;DHT22;62915;50.832;4.462;2023-12-20T06:09:21;6.90;99.90
23681;DHT22;62915;50.832;4.462;2023-12-20T06:11:47;6.90;99.90
23681;DHT22;62915;50.832;4.462;2023-12-20T06:14:13;6.80;99.90
23681;DHT22;62915;50.832;4.462;2023-12-20T06:16:39;6.90;99.90
23681;DHT22;62915;50.832;4.462;2023-12-20T06:19:05;6.90;99.90
23681;DHT22;62915;50.832;4.462;2023-12-20T06:21:31;6.90;99.90
23681;DHT22;62915;50.832;4.462;2023-12-20T06:23:59;7.00;99.90
23681;DHT22;62915;50.832;4.462;2023-12-20T06:26:25;7.00;99.90
23681;DHT22;62915;50.832;4.462;2023-12-20T06:28:51;7.00;99.90
23681;DHT22;62915;50.832;4.462;2023-12-20T06:31:16;6.90;99.90
23681;DHT22;62915;50.832;4.462;2023-12-20T06:33:43;6.90;99.90
23681;DHT22;62915;50.832;4.462;2023-12-20T06:36:12;7.00;99.90
23681;DHT22;62915;50.832;4.462;2023-12-20T06:38:39;6.90;99.90
23681;DHT22;62915;50.832;4.462;2023-12-20T06:41:05;7.00;99.90
23681;DHT22;62915;50.832;4.462;2023-12-20T06:43:31;7.00;99.90
23681;DHT22;62915;50.832;4.462;2023-12-20T06:46:00;6.90;99.90
23681;DHT22;62915;50.832;4.462;2023-12-20T06:48:26;6.80;99.90
23681;DHT22;62915;50.832;4.462;2023-12-20T06:50:51;6.80;99.90
23681;DHT22;62915;50.832;4.462;2023-12-20T06:53:18;6.90;99.90
23681;DHT22;62915;50.832;4.462;2023-12-20T06:55:43;6.90;99.90
23681;DHT22;62915;50.832;4.462;2023-12-20T06:58:09;6.90;99.90
23681;DHT22;62915;50.832;4.462;2023-12-20T07:00:35;6.90;99.90
23681;DHT22;62915;50.832;4.462;2023-12-20T07:03:01;7.00;99.90
23681;DHT22;62915;50.832;4.462;2023-12-20T07:05:27;7.00;99.90
23681;DHT22;62915;50.832;4.462;2023-12-20T07:07:52;6.90;99.90
23681;DHT22;62915;50.832;4.462;2023-12-20T07:10:19;6.80;99.90
23681;DHT22;62915;50.832;4.462;2023-12-20T07:12:45;6.90;99.90
23681;DHT22;62915;50.832;4.462;2023-12-20T07:15:11;7.00;99.90
23681;DHT22;62915;50.832;4.462;2023-12-20T07:17:37;6.90;99.90
23681;DHT22;62915;50.832;4.462;2023-12-20T07:20:03;6.80;99.90
23681;DHT22;62915;50.832;4.462;2023-12-20T07:22:30;6.80;99.90
23681;DHT22;62915;50.832;4.462;2023-12-20T07:24:59;6.80;99.90
23681;DHT22;62915;50.832;4.462;2023-12-20T07:27:26;6.80;99.90
23681;DHT22;62915;50.832;4.462;2023-12-20T07:29:52;6.80;99.90
23681;DHT22;62915;50.832;4.462;2023-12-20T07:32:18;6.80;99.90
23681;DHT22;62915;50.832;4.462;2023-12-20T07:34:43;6.80;99.90
23681;DHT22;62915;50.832;4.462;2023-12-20T07:37:09;6.80;99.90
23681;DHT22;62915;50.832;4.462;2023-12-20T07:39:41;6.70;99.90
23681;DHT22;62915;50.832;4.462;2023-12-20T07:42:08;6.70;99.90
23681;DHT22;62915;50.832;4.462;2023-12-20T07:44:34;6.60;99.90
23681;DHT22;62915;50.832;4.462;2023-12-20T07:47:03;6.60;99.90
23681;DHT22;62915;50.832;4.462;2023-12-20T07:49:31;6.70;99.90
23681;DHT22;62915;50.832;4.462;2023-12-20T07:51:58;6.70;99.90
23681;DHT22;62915;50.832;4.462;2023-12-20T07:54:24;6.70;99.90
23681;DHT22;62915;50.832;4.462;2023-12-20T07:56:50;6.60;99.90
23681;DHT22;62915;50.832;4.462;2023-12-20T07:59:15;6.60;99.90
23681;DHT22;62915;50.832;4.462;2023-12-20T08:01:41;6.60;99.90
23681;DHT22;62915;50.832;4.462;2023-12-20T08:04:08;6.70;99.90
23681;DHT22;62915;50.832;4.462;2023-12-20T08:06:34;6.70;99.90
23681;DHT22;62915;50.832;4.462;2023-12-20T08:08:59;6.70;99.90
23681;DHT22;62915;50.832;4.462;2023-12-20T08:11:25;6.70;99.90
23681;DHT22;62915;50.832;4.462;2023-12-20T08:13:51;6.60;99.90
23681;DHT22;62915;50.832;4.462;2023-12-20T08:16:19;6.70;99.90
23681;DHT22;62915;50.832;4.462;2023-12-20T08:18:45;6.80;99.90
23681;DHT22;62915;50.832;4.462;2023-12-20T08:21:13;6.70;99.90
23681;DHT22;62915;50.832;4.462;2023-12-20T08:23:41;6.70;99.90
23681;DHT22;62915;50.832;4.462;2023-12-20T08:26:10;6.70;99.90
23681;DHT22;62915;50.832;4.462;2023-12-20T08:28:38;6.60;99.90
23681;DHT22;62915;50.832;4.462;2023-12-20T08:31:06;6.70;99.90
23681;DHT22;62915;50.832;4.462;2023-12-20T08:33:31;6.70;99.90
23681;DHT22;62915;50.832;4.462;2023-12-20T08:35:57;6.70;99.90
23681;DHT22;62915;50.832;4.462;2023-12-20T08:38:23;6.60;99.90
23681;DHT22;62915;50.832;4.462;2023-12-20T08:40:49;6.60;99.90
23681;DHT22;62915;50.832;4.462;2023-12-20T08:43:15;6.80;99.90
23681;DHT22;62915;50.832;4.462;2023-12-20T08:45:40;6.70;99.90
23681;DHT22;62915;50.832;4.462;2023-12-20T08:48:06;6.70;99.90
23681;DHT22;62915;50.832;4.462;2023-12-20T08:50:32;6.60;99.90
23681;DHT22;62915;50.832;4.462;2023-12-20T08:52:58;6.60;99.90
23681;DHT22;62915;50.832;4.462;2023-12-20T08:55:24;6.70;99.90
23681;DHT22;62915;50.832;4.462;2023-12-20T08:57:49;6.70;99.90
23681;DHT22;62915;50.832;4.462;2023-12-20T09:00:16;6.80;99.90
23681;DHT22;62915;50.832;4.462;2023-12-20T09:02:46;6.90;99.90
23681;DHT22;62915;50.832;4.462;2023-12-20T09:05:14;6.90;99.90
23681;DHT22;62915;50.832;4.462;2023-12-20T09:07:43;6.90;99.90
23681;DHT22;62915;50.832;4.462;2023-12-20T09:10:08;6.80;99.90
23681;DHT22;62915;50.832;4.462;2023-12-20T09:12:34;6.90;99.90
23681;DHT22;62915;50.832;4.462;2023-12-20T09:15:00;7.00;99.90
23681;DHT22;62915;50.832;4.462;2023-12-20T09:17:28;6.90;99.90
23681;DHT22;62915;50.832;4.462;2023-12-20T09:19:54;6.90;99.90
23681;DHT22;62915;50.832;4.462;2023-12-20T09:22:20;6.90;99.90
23681;DHT22;62915;50.832;4.462;2023-12-20T09:24:45;7.10;99.90
23681;DHT22;62915;50.832;4.462;2023-12-20T09:27:11;7.10;99.90
23681;DHT22;62915;50.832;4.462;2023-12-20T09:29:37;7.00;99.90
23681;DHT22;62915;50.832;4.462;2023-12-20T09:32:03;7.10;99.90
23681;DHT22;62915;50.832;4.462;2023-12-20T09:34:28;7.10;99.90
23681;DHT22;62915;50.832;4.462;2023-12-20T09:36:55;7.00;99.90
23681;DHT22;62915;50.832;4.462;2023-12-20T09:39:21;7.00;99.90
23681;DHT22;62915;50.832;4.462;2023-12-20T09:42:04;7.10;99.90
23681;DHT22;62915;50.832;4.462;2023-12-20T09:44:30;7.20;99.90
23681;DHT22;62915;50.832;4.462;2023-12-20T09:46:57;7.30;99.90
23681;DHT22;62915;50.832;4.462;2023-12-20T09:49:25;7.40;99.90
23681;DHT22;62915;50.832;4.462;2023-12-20T09:51:54;7.50;99.90
23681;DHT22;62915;50.832;4.462;2023-12-20T09:54:21;7.50;99.90
23681;DHT22;62915;50.832;4.462;2023-12-20T09:56:47;7.60;99.90
23681;DHT22;62915;50.832;4.462;2023-12-20T09:59:15;7.60;99.90
23681;DHT22;62915;50.832;4.462;2023-12-20T10:01:44;7.70;99.90
23681;DHT22;62915;50.832;4.462;2023-12-20T10:04:12;7.70;99.90
23681;DHT22;62915;50.832;4.462;2023-12-20T10:06:42;7.70;99.90
23681;DHT22;62915;50.832;4.462;2023-12-20T10:09:09;7.50;99.90
23681;DHT22;62915;50.832;4.462;2023-12-20T10:11:38;7.60;99.90
23681;DHT22;62915;50.832;4.462;2023-12-20T10:14:05;7.70;99.90
23681;DHT22;62915;50.832;4.462;2023-12-20T10:16:32;7.70;99.90
23681;DHT22;62915;50.832;4.462;2023-12-20T10:18:59;7.70;99.90
23681;DHT22;62915;50.832;4.462;2023-12-20T10:21:26;7.70;99.90
23681;DHT22;62915;50.832;4.462;2023-12-20T10:23:55;7.80;99.90
23681;DHT22;62915;50.832;4.462;2023-12-20T10:26:25;8.00;99.90
23681;DHT22;62915;50.832;4.462;2023-12-20T10:28:55;8.20;99.90
23681;DHT22;62915;50.832;4.462;2023-12-20T10:33:56;8.20;99.90
23681;DHT22;62915;50.832;4.462;2023-12-20T10:36:25;8.20;99.90
23681;DHT22;62915;50.832;4.462;2023-12-20T10:38:52;8.20;99.90
23681;DHT22;62915;50.832;4.462;2023-12-20T10:41:31;8.30;99.90
23681;DHT22;62915;50.832;4.462;2023-12-20T10:44:01;8.20;99.90
23681;DHT22;62915;50.832;4.462;2023-12-20T10:46:29;8.20;99.90
23681;DHT22;62915;50.832;4.462;2023-12-20T10:48:56;8.10;99.90
23681;DHT22;62915;50.832;4.462;2023-12-20T10:51:23;8.10;99.90
23681;DHT22;62915;50.832;4.462;2023-12-20T10:53:51;8.10;99.90
23681;DHT22;62915;50.832;4.462;2023-12-20T10:56:18;8.10;99.90
23681;DHT22;62915;50.832;4.462;2023-12-20T10:58:45;8.10;99.90
23681;DHT22;62915;50.832;4.462;2023-12-20T11:01:16;8.10;99.90
23681;DHT22;62915;50.832;4.462;2023-12-20T11:03:51;8.20;99.90
23681;DHT22;62915;50.832;4.462;2023-12-20T11:09:08;8.40;99.90
23681;DHT22;62915;50.832;4.462;2023-12-20T11:14:15;8.70;99.90
23681;DHT22;62915;50.832;4.462;2023-12-20T11:16:42;8.60;99.90
23681;DHT22;62915;50.832;4.462;2023-12-20T11:19:08;8.60;99.90
23681;DHT22;62915;50.832;4.462;2023-12-20T11:21:36;8.60;99.90
23681;DHT22;62915;50.832;4.462;2023-12-20T11:24:03;8.50;99.90
23681;DHT22;62915;50.832;4.462;2023-12-20T11:26:30;8.50;99.90
23681;DHT22;62915;50.832;4.462;2023-12-20T11:29:30;8.40;99.90
23681;DHT22;62915;50.832;4.462;2023-12-20T11:31:58;8.40;99.90
23681;DHT22;62915;50.832;4.462;2023-12-20T11:34:31;8.40;99.90
23681;DHT22;62915;50.832;4.462;2023-12-20T11:37:02;8.50;99.90
23681;DHT22;62915;50.832;4.462;2023-12-20T11:39:28;8.40;99.90
23681;DHT22;62915;50.832;4.462;2023-12-20T11:41:57;8.30;99.90
23681;DHT22;62915;50.832;4.462;2023-12-20T11:44:25;8.40;99.90
23681;DHT22;62915;50.832;4.462;2023-12-20T11:46:50;8.50;99.90
23681;DHT22;62915;50.832;4.462;2023-12-20T11:49:16;8.50;99.90
23681;DHT22;62915;50.832;4.462;2023-12-20T11:51:42;8.60;99.90
23681;DHT22;62915;50.832;4.462;2023-12-20T11:54:09;8.60;99.90
23681;DHT22;62915;50.832;4.462;2023-12-20T11:56:36;8.50;99.90
23681;DHT22;62915;50.832;4.462;2023-12-20T11:59:02;8.50;99.90
23681;DHT22;62915;50.832;4.462;2023-12-20T12:01:28;8.60;99.90
23681;DHT22;62915;50.832;4.462;2023-12-20T12:04:06;8.70;99.90
23681;DHT22;62915;50.832;4.462;2023-12-20T12:06:33;8.60;99.90
23681;DHT22;62915;50.832;4.462;2023-12-20T12:08:59;8.60;99.90
23681;DHT22;62915;50.832;4.462;2023-12-20T12:11:25;8.50;99.90
23681;DHT22;62915;50.832;4.462;2023-12-20T12:13:51;8.50;99.90
23681;DHT22;62915;50.832;4.462;2023-12-20T12:16:17;8.50;99.90
23681;DHT22;62915;50.832;4.462;2023-12-20T12:18:44;8.40;99.90
23681;DHT22;62915;50.832;4.462;2023-12-20T12:21:18;8.40;99.90
23681;DHT22;62915;50.832;4.462;2023-12-20T12:23:44;8.50;99.90
23681;DHT22;62915;50.832;4.462;2023-12-20T12:26:09;8.60;99.90
23681;DHT22;62915;50.832;4.462;2023-12-20T12:28:35;8.50;99.90
23681;DHT22;62915;50.832;4.462;2023-12-20T12:31:01;8.60;99.90
23681;DHT22;62915;50.832;4.462;2023-12-20T12:33:27;8.60;99.90
23681;DHT22;62915;50.832;4.462;2023-12-20T12:35:53;8.70;99.90
23681;DHT22;62915;50.832;4.462;2023-12-20T12:38:23;8.60;99.90
23681;DHT22;62915;50.832;4.462;2023-12-20T12:40:50;8.60;99.90
23681;DHT22;62915;50.832;4.462;2023-12-20T12:43:16;8.70;99.90
23681;DHT22;62915;50.832;4.462;2023-12-20T12:45:41;8.70;99.90
23681;DHT22;62915;50.832;4.462;2023-12-20T12:48:07;8.70;99.90
23681;DHT22;62915;50.832;4.462;2023-12-20T12:50:33;8.80;99.90
23681;DHT22;62915;50.832;4.462;2023-12-20T12:52:58;8.90;99.90
23681;DHT22;62915;50.832;4.462;2023-12-20T12:55:24;8.80;99.90
23681;DHT22;62915;50.832;4.462;2023-12-20T12:57:50;8.70;99.90
23681;DHT22;62915;50.832;4.462;2023-12-20T13:00:16;8.80;99.90
23681;DHT22;62915;50.832;4.462;2023-12-20T13:02:41;8.90;99.90
23681;DHT22;62915;50.832;4.462;2023-12-20T13:05:08;8.80;99.90
23681;DHT22;62915;50.832;4.462;2023-12-20T13:07:34;8.80;99.90
23681;DHT22;62915;50.832;4.462;2023-12-20T13:10:00;8.90;99.90
23681;DHT22;62915;50.832;4.462;2023-12-20T13:12:26;8.90;99.90
23681;DHT22;62915;50.832;4.462;2023-12-20T13:14:51;8.90;99.90
23681;DHT22;62915;50.832;4.462;2023-12-20T13:17:17;8.90;99.90
23681;DHT22;62915;50.832;4.462;2023-12-20T13:19:43;8.90;99.90
23681;DHT22;62915;50.832;4.462;2023-12-20T13:22:08;8.80;99.90
23681;DHT22;62915;50.832;4.462;2023-12-20T13:24:34;8.90;99.90
23681;DHT22;62915;50.832;4.462;2023-12-20T13:27:00;8.90;99.90
23681;DHT22;62915;50.832;4.462;2023-12-20T13:29:26;8.90;99.90
23681;DHT22;62915;50.832;4.462;2023-12-20T13:31:54;9.00;99.90
23681;DHT22;62915;50.832;4.462;2023-12-20T13:34:20;9.00;99.90
23681;DHT22;62915;50.832;4.462;2023-12-20T13:36:46;9.10;99.90
23681;DHT22;62915;50.832;4.462;2023-12-20T13:39:13;9.00;99.90
23681;DHT22;62915;50.832;4.462;2023-12-20T13:41:39;9.10;99.90
23681;DHT22;62915;50.832;4.462;2023-12-20T13:44:05;9.10;99.90
23681;DHT22;62915;50.832;4.462;2023-12-20T13:46:31;9.20;99.90
23681;DHT22;62915;50.832;4.462;2023-12-20T13:48:57;9.20;99.90
23681;DHT22;62915;50.832;4.462;2023-12-20T13:51:23;9.20;99.90
23681;DHT22;62915;50.832;4.462;2023-12-20T13:53:49;9.10;99.90
23681;DHT22;62915;50.832;4.462;2023-12-20T13:56:15;9.20;99.90
23681;DHT22;62915;50.832;4.462;2023-12-20T13:58:41;9.20;99.90
23681;DHT22;62915;50.832;4.462;2023-12-20T14:01:08;9.10;99.90
23681;DHT22;62915;50.832;4.462;2023-12-20T14:03:35;9.20;99.90
23681;DHT22;62915;50.832;4.462;2023-12-20T14:06:01;9.20;99.90
23681;DHT22;62915;50.832;4.462;2023-12-20T14:08:30;9.20;99.90
23681;DHT22;62915;50.832;4.462;2023-12-20T14:10:56;9.30;99.90
23681;DHT22;62915;50.832;4.462;2023-12-20T14:13:21;9.20;99.90
23681;DHT22;62915;50.832;4.462;2023-12-20T14:15:47;9.20;99.90
23681;DHT22;62915;50.832;4.462;2023-12-20T14:18:14;9.30;99.90
23681;DHT22;62915;50.832;4.462;2023-12-20T14:20:41;9.20;99.90
23681;DHT22;62915;50.832;4.462;2023-12-20T14:23:08;9.20;99.90
23681;DHT22;62915;50.832;4.462;2023-12-20T14:25:37;9.30;99.90
23681;DHT22;62915;50.832;4.462;2023-12-20T14:28:06;9.30;99.90
23681;DHT22;62915;50.832;4.462;2023-12-20T14:30:31;9.30;99.90
23681;DHT22;62915;50.832;4.462;2023-12-20T14:32:57;9.40;99.90
23681;DHT22;62915;50.832;4.462;2023-12-20T14:35:24;9.40;99.90
23681;DHT22;62915;50.832;4.462;2023-12-20T14:37:49;9.40;99.90
23681;DHT22;62915;50.832;4.462;2023-12-20T14:40:16;9.40;99.90
23681;DHT22;62915;50.832;4.462;2023-12-20T14:42:45;9.50;99.90
23681;DHT22;62915;50.832;4.462;2023-12-20T14:45:11;9.50;99.90
23681;DHT22;62915;50.832;4.462;2023-12-20T14:47:38;9.40;99.90
23681;DHT22;62915;50.832;4.462;2023-12-20T14:50:05;9.40;99.90
23681;DHT22;62915;50.832;4.462;2023-12-20T14:52:33;9.40;99.90
23681;DHT22;62915;50.832;4.462;2023-12-20T14:55:02;9.40;99.90
23681;DHT22;62915;50.832;4.462;2023-12-20T14:57:28;9.50;99.90
23681;DHT22;62915;50.832;4.462;2023-12-20T14:59:57;9.50;99.90
23681;DHT22;62915;50.832;4.462;2023-12-20T15:02:23;9.40;99.90
23681;DHT22;62915;50.832;4.462;2023-12-20T15:04:48;9.50;99.90
23681;DHT22;62915;50.832;4.462;2023-12-20T15:07:15;9.50;99.90
23681;DHT22;62915;50.832;4.462;2023-12-20T15:09:41;9.60;99.90
23681;DHT22;62915;50.832;4.462;2023-12-20T15:12:11;9.50;99.90
23681;DHT22;62915;50.832;4.462;2023-12-20T15:14:38;9.50;99.90
23681;DHT22;62915;50.832;4.462;2023-12-20T15:17:04;9.40;99.90
23681;DHT22;62915;50.832;4.462;2023-12-20T15:19:30;9.40;99.90
23681;DHT22;62915;50.832;4.462;2023-12-20T15:21:57;9.40;99.90
23681;DHT22;62915;50.832;4.462;2023-12-20T15:24:24;9.50;99.90
23681;DHT22;62915;50.832;4.462;2023-12-20T15:26:54;9.60;99.90
23681;DHT22;62915;50.832;4.462;2023-12-20T15:29:21;9.60;99.90
23681;DHT22;62915;50.832;4.462;2023-12-20T15:31:47;9.60;99.90
23681;DHT22;62915;50.832;4.462;2023-12-20T15:34:14;9.70;99.90
23681;DHT22;62915;50.832;4.462;2023-12-20T15:36:40;9.60;99.90
23681;DHT22;62915;50.832;4.462;2023-12-20T15:39:06;9.60;99.90
23681;DHT22;62915;50.832;4.462;2023-12-20T15:41:35;9.70;99.90
23681;DHT22;62915;50.832;4.462;2023-12-20T15:44:01;9.70;99.90
23681;DHT22;62915;50.832;4.462;2023-12-20T15:46:27;9.70;99.90
23681;DHT22;62915;50.832;4.462;2023-12-20T15:48:52;9.60;99.90